.
WxDataArchive / Data Records for 2013-01-26
2013-01-25 January 2013 2013-01-27

Data Records for Saturday, 26 January 2013

Time	Temp	Chill	HIndex	Humid	Dewpt	 Wind 	HiWind	WindDir	Rain 	Barom 
-----	----	-----	------	-----	-----	------	------	-------	-----	----- 
00:00	23.9	23.9	23.9	83	19.5	0	1	270	0.00	30.089 
00:05	24.1	24.1	24.1	83	19.7	0	2	270	0.00	30.089 
00:10	24.1	24.1	24.1	83	19.7	0	1	270	0.00	30.089 
00:15	24.1	24.1	24.1	83	19.7	0	0	---	0.00	30.088 
00:20	24.1	24.1	24.1	83	19.7	0	0	---	0.00	30.088 
00:25	24.1	24.1	24.1	83	19.7	0	1	270	0.00	30.088 
00:30	24.1	24.1	24.1	83	19.7	0	0	---	0.00	30.092 
00:35	24.1	24.1	24.1	83	19.7	0	0	---	0.00	30.092 
00:40	24.1	24.1	24.1	83	19.7	0	0	---	0.00	30.092 
00:45	24.1	24.1	24.1	83	19.7	0	0	---	0.00	30.096 
00:50	24.1	24.1	24.1	83	19.7	0	0	---	0.00	30.096 
00:55	23.9	23.9	23.9	83	19.5	0	0	---	0.00	30.096 
01:00	23.9	23.9	23.9	83	19.5	0	0	---	0.00	30.094 
01:05	23.9	23.9	23.9	83	19.5	0	0	---	0.00	30.094 
01:10	23.9	23.9	23.9	83	19.5	0	0	---	0.00	30.094 
01:15	23.9	23.9	23.9	83	19.5	0	0	---	0.00	30.099 
01:20	23.9	23.9	23.9	83	19.5	0	0	---	0.00	30.099 
01:25	23.8	23.8	23.8	83	19.4	0	0	---	0.00	30.099 
01:30	23.9	23.9	23.9	83	19.5	0	0	---	0.00	30.102 
01:35	23.9	23.9	23.9	83	19.5	0	0	---	0.00	30.102 
01:40	23.9	23.9	23.9	83	19.5	0	0	---	0.00	30.102 
01:45	23.9	23.9	23.9	83	19.5	0	0	---	0.00	30.105 
01:50	23.9	23.9	23.9	84	19.8	0	1	270	0.00	30.105 
01:55	24.1	24.1	24.1	84	20.0	0	0	---	0.00	30.105 
02:00	24.1	24.1	24.1	84	20.0	0	1	270	0.00	30.110 
02:05	24.1	24.1	24.1	84	20.0	0	0	---	0.00	30.110 
02:10	24.2	24.2	24.2	84	20.1	0	1	270	0.00	30.110 
02:15	24.2	24.2	24.2	83	19.8	0	2	270	0.00	30.119 
02:20	24.4	24.4	24.4	83	20.0	0	2	270	0.00	30.119 
02:25	24.5	24.5	24.5	83	20.1	0	2	270	0.00	30.119 
02:30	24.7	24.7	24.7	82	20.0	1	3	270	0.00	30.121 
02:35	24.7	24.7	24.7	82	20.0	1	2	270	0.00	30.121 
02:40	24.7	24.7	24.7	82	20.0	0	2	270	0.00	30.121 
02:45	24.7	24.7	24.7	81	19.7	1	3	270	0.00	30.130 
02:50	24.8	24.8	24.8	81	19.8	1	3	270	0.00	30.130 
02:55	24.8	24.8	24.8	81	19.8	1	4	270	0.00	30.130 
03:00	24.8	24.8	24.8	81	19.8	1	3	270	0.00	30.133 
03:05	24.8	24.8	24.8	81	19.8	1	3	270	0.00	30.133 
03:10	24.8	24.8	24.8	81	19.8	1	3	270	0.00	30.133 
03:15	25.0	25.0	25.0	81	20.0	1	3	270	0.00	30.139 
03:20	25.0	25.0	25.0	81	20.0	1	5	270	0.00	30.139 
03:25	25.0	25.0	25.0	81	20.0	1	3	292	0.00	30.139 
03:30	25.0	25.0	25.0	81	20.0	1	4	292	0.00	30.143 
03:35	25.1	25.1	25.1	81	20.1	1	3	315	0.00	30.143 
03:40	25.1	25.1	25.1	81	20.1	1	5	315	0.00	30.143 
03:45	25.1	25.1	25.1	80	19.8	1	3	338	0.00	30.143 
03:50	25.1	25.1	25.1	80	19.8	1	4	248	0.00	30.143 
03:55	25.1	25.1	25.1	80	19.8	1	3	248	0.00	30.143 
04:00	25.1	25.1	25.1	80	19.8	1	3	248	0.00	30.148 
04:05	25.1	25.1	25.1	80	19.8	0	2	248	0.00	30.148 
04:10	25.1	25.1	25.1	79	19.5	1	3	248	0.00	30.148 
04:15	25.1	25.1	25.1	79	19.5	0	2	248	0.00	30.154 
04:20	25.0	25.0	25.0	79	19.4	0	2	248	0.00	30.154 
04:25	25.0	25.0	25.0	79	19.4	0	2	248	0.00	30.154 
04:30	25.0	25.0	25.0	78	19.1	1	3	248	0.00	30.162 
04:35	24.8	24.8	24.8	78	18.9	1	3	248	0.00	30.162 
04:40	24.8	24.8	24.8	78	18.9	1	3	270	0.00	30.162 
04:45	24.8	24.8	24.8	77	18.6	0	3	270	0.00	30.165 
04:50	24.8	24.8	24.8	77	18.6	0	2	270	0.00	30.165 
04:55	24.7	24.7	24.7	78	18.8	1	2	270	0.00	30.165 
05:00	24.7	24.7	24.7	78	18.8	0	2	270	0.00	30.165 
05:05	24.7	24.7	24.7	78	18.8	1	4	270	0.00	30.165 
05:10	24.5	24.5	24.5	79	18.9	0	2	315	0.00	30.165 
05:15	24.4	24.4	24.4	79	18.8	0	1	315	0.00	30.174 
05:20	24.4	24.4	24.4	79	18.8	0	1	315	0.00	30.174 
05:25	24.2	24.2	24.2	79	18.6	0	2	315	0.00	30.174 
05:30	24.2	24.2	24.2	79	18.6	1	2	315	0.00	30.182 
05:35	24.2	24.2	24.2	80	18.9	0	1	315	0.00	30.182 
05:40	24.1	24.1	24.1	80	18.8	0	2	315	0.00	30.182 
05:45	24.1	24.1	24.1	80	18.8	0	2	315	0.00	30.187 
05:50	23.9	23.9	23.9	80	18.6	0	2	315	0.00	30.187 
05:55	23.9	23.9	23.9	80	18.6	0	2	315	0.00	30.187 
06:00	23.9	23.9	23.9	80	18.6	0	1	315	0.00	30.195 
06:05	23.9	23.9	23.9	80	18.6	1	5	338	0.00	30.195 
06:10	23.9	23.9	23.9	79	18.4	0	4	0	0.00	30.195 
06:15	23.9	23.9	23.9	79	18.4	1	3	338	0.00	30.199 
06:20	23.9	23.9	23.9	79	18.4	0	2	338	0.00	30.199 
06:25	23.9	23.9	23.9	79	18.4	0	2	338	0.00	30.199 
06:30	23.9	23.9	23.9	78	18.1	0	3	338	0.00	30.211 
06:35	23.9	23.9	23.9	78	18.1	0	1	338	0.00	30.211 
06:40	23.9	23.9	23.9	79	18.4	0	1	338	0.00	30.211 
06:45	23.9	23.9	23.9	79	18.4	0	2	338	0.00	30.217 
06:50	23.9	23.9	23.9	79	18.4	0	1	338	0.00	30.217 
06:55	23.9	23.9	23.9	79	18.4	0	1	338	0.00	30.217 
07:00	23.8	23.8	23.8	79	18.3	0	1	338	0.00	30.225 
07:05	23.8	23.8	23.8	79	18.3	0	2	338	0.00	30.225 
07:10	23.8	23.8	23.8	79	18.3	0	3	292	0.00	30.225 
07:15	23.8	23.8	23.8	79	18.3	0	2	292	0.00	30.234 
07:20	23.8	23.8	23.8	79	18.3	0	2	292	0.00	30.234 
07:25	23.8	23.8	23.8	79	18.3	0	1	292	0.00	30.234 
07:30	23.8	23.8	23.8	79	18.3	1	3	292	0.00	30.243 
07:35	23.8	23.8	23.8	78	18.0	0	2	292	0.00	30.243 
07:40	23.8	23.8	23.8	78	18.0	0	2	292	0.00	30.243 
07:45	23.8	23.8	23.8	78	18.0	0	3	292	0.00	30.247 
07:50	23.8	23.8	23.8	78	18.0	0	2	292	0.00	30.247 
07:55	23.8	23.8	23.8	78	18.0	0	1	292	0.00	30.247 
08:00	23.8	23.8	23.8	78	18.0	0	2	292	0.00	30.254 
08:05	23.8	23.8	23.8	78	18.0	0	2	292	0.00	30.254 
08:10	23.8	23.8	23.8	78	18.0	0	0	---	0.00	30.254 
08:15	23.8	23.8	23.8	78	18.0	0	1	292	0.00	30.264 
08:20	23.9	23.9	23.9	78	18.1	0	1	292	0.00	30.264 
08:25	23.9	23.9	23.9	78	18.1	0	1	292	0.00	30.264 
08:30	23.9	23.9	23.9	78	18.1	0	2	292	0.00	30.276 
08:35	23.9	23.9	23.9	78	18.1	0	2	292	0.00	30.276 
08:40	23.9	23.9	23.9	77	17.8	0	1	292	0.00	30.276 
08:45	23.9	23.9	23.9	77	17.8	0	1	292	0.00	30.279 
08:50	23.9	23.9	23.9	77	17.8	0	2	292	0.00	30.279 
08:55	23.9	23.9	23.9	77	17.8	0	4	292	0.00	30.279 
09:00	23.8	23.8	23.8	75	17.1	1	3	22	0.00	30.292 
09:05	23.8	23.8	23.8	75	17.1	0	1	22	0.00	30.292 
09:10	23.8	23.8	23.8	75	17.1	0	4	270	0.00	30.292 
09:15	23.8	23.8	23.8	75	17.1	0	1	270	0.00	30.292 
09:20	23.8	23.8	23.8	75	17.1	0	1	270	0.00	30.292 
09:25	23.9	23.9	23.9	75	17.2	0	1	270	0.00	30.292 
09:30	24.1	24.1	24.1	75	17.3	0	0	---	0.00	30.302 
09:35	24.2	24.2	24.2	75	17.4	0	1	270	0.00	30.302 
09:40	24.4	24.4	24.4	74	17.3	0	2	270	0.00	30.302 
09:45	24.7	24.7	24.7	74	17.6	0	2	270	0.00	30.306 
09:50	24.8	24.8	24.8	73	17.4	0	1	270	0.00	30.306 
09:55	24.8	24.8	24.8	73	17.4	0	3	270	0.00	30.306 
10:00	24.8	24.8	24.8	73	17.4	0	2	270	0.00	30.314 
10:05	25.0	25.0	25.0	72	17.3	0	2	270	0.00	30.314 
10:10	25.1	25.1	25.1	73	17.7	0	1	270	0.00	30.314 
10:15	25.3	25.3	25.3	73	17.9	0	2	270	0.00	30.322 
10:20	25.3	25.3	25.3	72	17.6	0	2	270	0.00	30.322 
10:25	25.3	25.3	25.3	72	17.6	0	3	270	0.00	30.322 
10:30	25.3	25.3	25.3	72	17.6	1	3	270	0.00	30.329 
10:35	25.1	25.1	25.1	72	17.4	1	3	315	0.00	30.329 
10:40	25.1	25.1	25.1	72	17.4	0	2	315	0.00	30.329 
10:45	25.3	25.3	25.3	73	17.9	0	2	315	0.00	30.333 
10:50	25.3	25.3	25.3	72	17.6	1	3	315	0.00	30.333 
10:55	25.3	25.3	25.3	72	17.6	0	2	315	0.00	30.333 
11:00	25.4	25.4	25.4	72	17.7	1	3	315	0.00	30.345 
11:05	25.4	25.4	25.4	71	17.3	1	3	315	0.00	30.345 
11:10	25.3	25.3	25.3	71	17.2	1	3	315	0.00	30.345 
11:15	25.3	25.3	25.3	71	17.2	1	4	338	0.00	30.361 
11:20	25.3	25.3	25.3	72	17.6	0	2	338	0.00	30.361 
11:25	25.4	25.4	25.4	73	18.0	0	2	338	0.00	30.361 
11:30	25.4	25.4	25.4	72	17.7	1	2	338	0.00	30.368 
11:35	25.3	25.3	25.3	72	17.6	1	3	338	0.00	30.368 
11:40	25.3	25.3	25.3	71	17.2	1	4	338	0.00	30.368 
11:45	25.4	25.4	25.4	72	17.7	0	2	338	0.00	30.367 
11:50	25.3	25.3	25.3	71	17.2	1	2	338	0.00	30.367 
11:55	25.4	25.4	25.4	70	17.0	0	3	338	0.00	30.367 
12:00	25.4	25.4	25.4	69	16.7	1	4	292	0.00	30.369 
12:05	25.3	25.3	25.3	67	15.9	1	3	292	0.00	30.369 
12:10	25.6	25.6	25.6	66	15.8	0	2	292	0.00	30.369 
12:15	26.1	26.1	26.1	65	16.0	1	3	292	0.00	30.363 
12:20	26.1	26.1	26.1	63	15.3	1	4	315	0.00	30.363 
12:25	25.8	25.8	25.8	62	14.6	2	4	0	0.00	30.363 
12:30	25.8	25.8	25.8	63	15.0	1	3	315	0.00	30.361 
12:35	26.0	26.0	26.0	64	15.5	0	2	315	0.00	30.361 
12:40	26.0	26.0	26.0	64	15.5	1	3	315	0.00	30.361 
12:45	25.8	25.8	25.8	64	15.3	2	6	292	0.00	30.360 
12:50	25.7	25.7	25.7	64	15.2	1	3	315	0.00	30.360 
12:55	25.8	25.8	25.8	65	15.7	1	3	248	0.00	30.360 
13:00	25.8	25.8	25.8	65	15.7	1	4	248	0.00	30.360 
13:05	26.0	26.0	26.0	66	16.2	1	5	270	0.00	30.360 
13:10	26.1	26.1	26.1	66	16.3	0	3	270	0.00	30.360 
13:15	26.0	26.0	26.0	67	16.6	0	2	270	0.00	30.355 
13:20	25.8	25.8	25.8	67	16.4	0	2	270	0.00	30.355 
13:25	25.7	25.7	25.7	67	16.3	0	2	270	0.00	30.355 
13:30	26.0	26.0	26.0	67	16.6	1	3	270	0.00	30.353 
13:35	26.6	26.6	26.6	66	16.8	0	3	270	0.00	30.353 
13:40	26.7	26.7	26.7	65	16.5	0	2	270	0.00	30.353 
13:45	26.9	26.9	26.9	64	16.4	0	2	270	0.00	30.352 
13:50	26.7	26.7	26.7	63	15.8	0	2	270	0.00	30.352 
13:55	26.7	26.7	26.7	62	15.5	1	3	270	0.00	30.352 
14:00	26.7	26.7	26.7	61	15.1	1	5	270	0.00	30.354 
14:05	26.7	26.7	26.7	59	14.3	1	3	270	0.00	30.354 
14:10	26.7	26.7	26.7	58	13.9	1	4	338	0.00	30.354 
14:15	26.9	26.9	26.9	58	14.1	1	4	270	0.00	30.352 
14:20	26.7	26.7	26.7	58	13.9	1	4	338	0.00	30.352 
14:25	26.6	26.6	26.6	58	13.8	1	3	270	0.00	30.352 
14:30	26.7	26.7	26.7	60	14.7	1	2	270	0.00	30.352 
14:35	27.0	27.0	27.0	58	14.2	1	3	270	0.00	30.352 
14:40	27.5	27.5	27.5	58	14.7	1	4	270	0.00	30.352 
14:45	27.8	27.8	27.8	58	15.0	1	3	270	0.00	30.354 
14:50	27.8	27.8	27.8	57	14.6	1	3	270	0.00	30.354 
14:55	27.8	27.8	27.8	58	15.0	1	3	270	0.00	30.354 
15:00	27.8	27.8	27.8	57	14.6	1	4	270	0.00	30.355 
15:05	27.6	27.6	27.6	57	14.4	1	3	270	0.00	30.355 
15:10	27.8	27.8	27.8	58	15.0	0	2	270	0.00	30.355 
15:15	27.8	27.8	27.8	56	14.2	1	4	0	0.00	30.357 
15:20	28.2	28.2	28.2	57	14.9	1	3	315	0.00	30.357 
15:25	28.4	28.4	28.4	55	14.3	1	5	338	0.00	30.357 
15:30	28.7	28.7	28.7	55	14.6	1	3	338	0.00	30.363 
15:35	29.0	29.0	29.0	54	14.5	1	4	270	0.00	30.363 
15:40	28.8	28.8	28.8	53	13.9	1	2	270	0.00	30.363 
15:45	28.5	28.5	28.5	54	14.0	1	4	338	0.00	30.365 
15:50	28.4	28.4	28.4	54	13.9	0	2	338	0.00	30.365 
15:55	28.1	28.1	28.1	54	13.6	1	4	270	0.01	30.365 
16:00	27.9	27.9	27.9	54	13.4	1	3	315	0.00	30.374 
16:05	27.8	27.8	27.8	55	13.8	0	2	315	0.00	30.374 
16:10	27.5	27.5	27.5	55	13.5	0	2	315	0.00	30.374 
16:15	27.3	27.3	27.3	55	13.3	0	2	315	0.00	30.378 
16:20	27.2	27.2	27.2	55	13.2	1	2	22	0.00	30.378 
16:25	27.2	27.2	27.2	55	13.2	1	3	22	0.00	30.378 
16:30	27.0	27.0	27.0	56	13.4	0	2	270	0.00	30.383 
16:35	27.0	27.0	27.0	56	13.4	0	2	270	0.00	30.383 
16:40	26.9	26.9	26.9	56	13.3	0	1	270	0.00	30.383 
16:45	26.9	26.9	26.9	57	13.7	0	2	270	0.00	30.389 
16:50	26.9	26.9	26.9	57	13.7	0	1	270	0.00	30.389 
16:55	26.9	26.9	26.9	57	13.7	0	1	270	0.00	30.389 
17:00	26.9	26.9	26.9	58	14.1	0	1	270	0.00	30.391 
17:05	27.0	27.0	27.0	58	14.2	0	1	270	0.00	30.391 
17:10	27.0	27.0	27.0	58	14.2	0	1	270	0.00	30.391 
17:15	27.0	27.0	27.0	58	14.2	0	2	270	0.00	30.398 
17:20	27.0	27.0	27.0	58	14.2	0	2	270	0.00	30.398 
17:25	26.9	26.9	26.9	59	14.5	0	1	270	0.00	30.398 
17:30	26.9	26.9	26.9	59	14.5	0	2	270	0.00	30.401 
17:35	26.9	26.9	26.9	58	14.1	0	1	270	0.00	30.401 
17:40	26.7	26.7	26.7	58	13.9	0	1	270	0.00	30.401 
17:45	26.7	26.7	26.7	59	14.3	0	2	270	0.00	30.410 
17:50	26.7	26.7	26.7	59	14.3	0	2	270	0.00	30.410 
17:55	26.7	26.7	26.7	59	14.3	0	1	270	0.00	30.410 
18:00	26.7	26.7	26.7	59	14.3	0	1	270	0.00	30.421 
18:05	26.6	26.6	26.6	59	14.2	0	1	270	0.00	30.421 
18:10	26.6	26.6	26.6	59	14.2	0	0	---	0.00	30.421 
18:15	26.6	26.6	26.6	60	14.6	0	1	270	0.00	30.422 
18:20	26.6	26.6	26.6	60	14.6	0	1	270	0.00	30.422 
18:25	26.6	26.6	26.6	61	15.0	0	2	270	0.00	30.422 
18:30	26.6	26.6	26.6	61	15.0	0	2	270	0.00	30.423 
18:35	26.6	26.6	26.6	61	15.0	0	1	270	0.00	30.423 
18:40	26.6	26.6	26.6	61	15.0	0	1	270	0.00	30.423 
18:45	26.6	26.6	26.6	61	15.0	0	0	---	0.00	30.432 
18:50	26.4	26.4	26.4	62	15.2	0	0	---	0.00	30.432 
18:55	26.4	26.4	26.4	62	15.2	0	1	270	0.00	30.432 
19:00	26.3	26.3	26.3	62	15.1	0	0	---	0.00	30.431 
19:05	26.3	26.3	26.3	62	15.1	0	0	---	0.00	30.431 
19:10	26.1	26.1	26.1	62	14.9	0	0	---	0.00	30.431 
19:15	26.1	26.1	26.1	63	15.3	0	0	---	0.00	30.425 
19:20	26.0	26.0	26.0	63	15.2	0	0	---	0.00	30.425 
19:25	26.0	26.0	26.0	64	15.5	0	1	270	0.00	30.425 
19:30	25.8	25.8	25.8	64	15.3	0	1	270	0.00	30.426 
19:35	25.7	25.7	25.7	64	15.2	0	0	---	0.00	30.426 
19:40	25.6	25.6	25.6	64	15.1	0	0	---	0.00	30.426 
19:45	25.4	25.4	25.4	64	14.9	0	0	---	0.00	30.433 
19:50	25.3	25.3	25.3	64	14.9	0	0	---	0.00	30.433 
19:55	25.1	25.1	25.1	63	14.3	0	0	---	0.00	30.433 
20:00	24.8	24.8	24.8	64	14.4	0	0	---	0.00	30.439 
20:05	24.7	24.7	24.7	64	14.3	0	0	---	0.00	30.439 
20:10	24.4	24.4	24.4	64	14.0	0	0	---	0.00	30.439 
20:15	24.1	24.1	24.1	64	13.7	0	0	---	0.00	30.443 
20:20	23.8	23.8	23.8	64	13.4	0	0	---	0.00	30.443 
20:25	23.6	23.6	23.6	65	13.6	0	0	---	0.00	30.443 
20:30	23.3	23.3	23.3	65	13.3	0	0	---	0.00	30.449 
20:35	22.9	22.9	22.9	66	13.3	0	0	---	0.00	30.449 
20:40	22.5	22.5	22.5	68	13.6	0	0	---	0.00	30.449 
20:45	22.2	22.2	22.2	68	13.3	0	0	---	0.00	30.438 
20:50	21.8	21.8	21.8	69	13.2	0	1	270	0.00	30.438 
20:55	21.4	21.4	21.4	70	13.2	0	0	---	0.00	30.438 
21:00	21.1	21.1	21.1	69	12.5	0	0	---	0.00	30.433 
21:05	20.8	20.8	20.8	70	12.6	0	0	---	0.00	30.433 
21:10	20.3	20.3	20.3	71	12.4	0	0	---	0.00	30.433 
21:15	20.0	20.0	20.0	71	12.1	0	0	---	0.00	30.434 
21:20	19.9	19.9	19.9	72	12.4	0	0	---	0.00	30.434 
21:25	19.7	19.7	19.7	73	12.5	0	0	---	0.00	30.434 
21:30	19.7	19.7	19.7	74	12.8	0	0	---	0.00	30.422 
21:35	19.5	19.5	19.5	74	12.6	0	0	---	0.00	30.422 
21:40	19.5	19.5	19.5	74	12.6	0	0	---	0.00	30.422 
21:45	19.7	19.7	19.7	75	13.1	0	0	---	0.00	30.436 
21:50	19.9	19.9	19.9	75	13.3	0	0	---	0.00	30.436 
21:55	20.2	20.2	20.2	76	13.9	0	0	---	0.00	30.436 
22:00	20.3	20.3	20.3	76	14.0	0	0	---	0.00	30.450 
22:05	20.5	20.5	20.5	76	14.2	0	0	---	0.00	30.450 
22:10	20.5	20.5	20.5	76	14.2	0	0	---	0.00	30.450 
22:15	20.5	20.5	20.5	77	14.5	0	0	---	0.00	30.448 
22:20	20.5	20.5	20.5	77	14.5	0	0	---	0.00	30.448 
22:25	20.5	20.5	20.5	77	14.5	0	0	---	0.00	30.448 
22:30	20.5	20.5	20.5	77	14.5	0	0	---	0.00	30.451 
22:35	20.5	20.5	20.5	77	14.5	0	0	---	0.00	30.451 
22:40	20.3	20.3	20.3	77	14.3	0	0	---	0.00	30.451 
22:45	20.3	20.3	20.3	77	14.3	0	0	---	0.00	30.462 
22:50	20.2	20.2	20.2	77	14.2	0	0	---	0.00	30.462 
22:55	20.2	20.2	20.2	77	14.2	0	0	---	0.00	30.462 
23:00	20.2	20.2	20.2	77	14.2	0	1	270	0.00	30.460 
23:05	20.3	20.3	20.3	77	14.3	0	0	---	0.00	30.460 
23:10	20.3	20.3	20.3	77	14.3	0	0	---	0.00	30.460 
23:15	20.3	20.3	20.3	77	14.3	0	0	---	0.00	30.464 
23:20	20.2	20.2	20.2	77	14.2	0	0	---	0.00	30.464 
23:25	20.0	20.0	20.0	77	14.0	0	0	---	0.00	30.464 
23:30	19.9	19.9	19.9	77	13.9	0	0	---	0.00	30.472 
23:35	19.7	19.7	19.7	77	13.7	0	0	---	0.00	30.472 
23:40	19.4	19.4	19.4	77	13.4	0	0	---	0.00	30.472 
23:45	19.2	19.2	19.2	77	13.2	0	0	---	0.00	30.469 
23:50	18.9	18.9	18.9	78	13.2	0	0	---	0.00	30.469 
23:55	18.8	18.8	18.8	78	13.1	0	0	---	0.00	30.469 

CoCoRaHS
IN-AL-39
A2 Web Hosting
Creative Commons License
GoDaddy
search engine by freefind advanced

loaded 2018-11-21 00:39:22 • last modified 2010-11-18 10:43:29
Privacy PolicyDisclaimer
• wx.awcolley.com is powered by PmWiki v.2002016 •
• all content (unless otherwise noted) © 2018 A W Colley